Home   Weather   USA   LaGrange   Past weeks
Flag for USA

Past Weather in LaGrange, Georgia, USA — Yesterday and Last 2 Weeks

Currently: 57 °F. Sunny. (Weather station: Callaway Airport, USA). See more current weather

Past Weather in LaGrange — Graph

°F

LaGrange Temperature Yesterday

Maximum temperature yesterday: 76 °F (at 4:35 pm)
Minimum temperature yesterday: 46 °F (at 5:55 am)
Average temperature yesterday: 60 °F

High & Low Weather Summary for the Past Weeks

 TemperatureHumidityPressure
High85 °F (Apr 13, 5:15 pm)97% (Apr 7, 2:55 am)30.18 "Hg (Apr 7, 2:55 am)
Low43 °F (Apr 21, 6:35 am)18% (Apr 12, 4:35 pm)29.67 "Hg (Apr 10, 6:35 pm)
Average63 °F68%29.93 "Hg
* Reported Apr 6 9:15 am — Apr 21 9:55 am, LaGrange. Weather by CustomWeather, © 2021

Note: Actual official high and low records may vary slightly from our data, if they occured in-between our weather recording intervals... More about our weather records

LaGrange Weather History for the Previous 24 Hours

Scroll right to see more
 ConditionsComfort  
Time TempWeatherWind HumidityBarometerVisibility
9:55 am
Wed, Apr 21
56 °FSunny.9 mph57%30.04 "Hg10 mi
9:35 am55 °FSunny.6 mph58%30.04 "Hg10 mi
9:15 am54 °FSunny.9 mph61%30.04 "Hg10 mi
8:55 am53 °FSunny.8 mph64%30.04 "Hg10 mi
8:35 am53 °FSunny.8 mph67%30.03 "Hg10 mi
8:15 am53 °FSunny.9 mph72%30.02 "Hg10 mi
7:55 am52 °FSunny.6 mph77%30.01 "Hg10 mi
7:35 am46 °FSunny.9 mph97%30.00 "Hg10 mi
7:15 am44 °FFog.No wind97%29.98 "Hg4 mi
6:55 am44 °FFog.No wind97%29.97 "Hg1 mi
6:35 am43 °FClear.No wind97%29.96 "Hg7 mi
6:15 am45 °FClear.No wind97%29.97 "Hg10 mi
5:55 am46 °FClear.No wind97%29.96 "Hg10 mi
5:15 am46 °FClear.No wind97%29.95 "Hg10 mi
4:55 am47 °FFog.No wind97%29.95 "Hg3 mi
4:35 am46 °FClear.No wind97%29.95 "Hg7 mi
4:15 am47 °FClear.No wind97%29.95 "Hg10 mi
3:55 am47 °FClear.No wind97%29.95 "Hg10 mi
3:35 am48 °FClear.No wind97%29.95 "Hg10 mi
2:55 am49 °FClear.No wind97%29.96 "Hg10 mi
2:35 am49 °FClear.No wind97%29.96 "Hg10 mi
2:15 am49 °FClear.No wind97%29.96 "Hg10 mi
1:55 am49 °FClear.No wind97%29.96 "Hg10 mi
1:35 am50 °FClear.No wind97%29.97 "Hg10 mi
1:15 am50 °FClear.No wind97%29.97 "Hg10 mi
12:55 am51 °FClear.No wind91%29.97 "Hg10 mi
12:35 am51 °FPassing clouds.No wind93%29.97 "Hg10 mi
11:55 pm
Tue, Apr 20
52 °FClear.No wind87%29.97 "Hg10 mi
11:35 pm53 °FClear.No wind79%29.97 "Hg10 mi
11:15 pm53 °FClear.No wind81%29.97 "Hg10 mi
10:55 pm55 °FClear.No wind77%29.96 "Hg10 mi
10:35 pm55 °FClear.No wind76%29.96 "Hg10 mi
10:15 pm56 °FClear.No wind73%29.96 "Hg10 mi
9:55 pm56 °FClear.No wind76%29.95 "Hg10 mi
9:35 pm56 °FClear.No wind73%29.95 "Hg10 mi
9:15 pm58 °FClear.No wind70%29.94 "Hg10 mi
8:55 pm60 °FClear.No wind64%29.93 "Hg10 mi
8:15 pm64 °FClear.3 mph55%29.92 "Hg10 mi
7:55 pm67 °FSunny.No wind52%29.91 "Hg10 mi
7:35 pm71 °FSunny.No wind40%29.91 "Hg10 mi
7:15 pm72 °FScattered clouds.3 mph33%29.92 "Hg10 mi
6:55 pm74 °FScattered clouds.5 mph31%29.91 "Hg10 mi
6:15 pm73 °FScattered clouds.3 mph32%29.92 "Hg10 mi
5:55 pm76 °FScattered clouds.3 mph29%29.92 "Hg10 mi
5:35 pm75 °FScattered clouds.3 mph29%29.92 "Hg10 mi
5:15 pm75 °FScattered clouds.5 mph30%29.92 "Hg10 mi
4:55 pm75 °FScattered clouds.8 mph29%29.92 "Hg10 mi
4:35 pm76 °FSunny.3 mph30%29.93 "Hg10 mi
4:15 pm73 °FSunny.5 mph31%29.94 "Hg10 mi
3:55 pm75 °FSunny.8 mph31%29.95 "Hg10 mi
3:35 pm75 °FScattered clouds.6 mph32%29.95 "Hg10 mi
3:15 pm74 °FSunny.6 mph31%29.96 "Hg10 mi
2:55 pm73 °FSunny.6 mph31%29.97 "Hg10 mi
2:35 pm73 °FSunny.9 mph30%29.98 "Hg10 mi
2:15 pm73 °FSunny.7 mph32%29.98 "Hg10 mi
1:55 pm73 °FScattered clouds.6 mph34%29.98 "Hg10 mi
1:35 pm72 °FScattered clouds.7 mph37%30.00 "Hg10 mi
1:15 pm71 °FSunny.6 mph37%30.01 "Hg10 mi
12:55 pm70 °FSunny.5 mph40%30.01 "Hg10 mi
12:35 pm68 °FSunny.7 mph42%30.03 "Hg10 mi
12:15 pm69 °FSunny.3 mph41%30.04 "Hg10 mi
11:55 am67 °FSunny.3 mph43%30.04 "Hg10 mi
11:35 am65 °FSunny.3 mph43%30.04 "Hg10 mi
11:15 am64 °FSunny.No wind47%30.05 "Hg10 mi
Weather by CustomWeather, © 2021

See weather overview